Terminal Aerodrome Forecast
Issued by NWS

Home | Current Version | Previous Version | Graphics & Text | Print | Product List | Glossary On
Versions: 1 2 3 4 5 6 7 8 9 10 11 12 13 14 15 16
000
FTUS41 KCLE 251700
TAFFDY
TAF
KFDY 251722Z 2518/2618 25015G25KT P6SM OVC025
     FM252200 23012KT P6SM OVC025
     FM260200 21008KT P6SM BKN250=

USA.gov is the U.S. government's official web portal to all federal, state and local government web resources and services.